createdAt,value
2023-04-15T00:00:28.050Z,4.9094
2023-04-15T00:01:28.607Z,5.0341
2023-04-15T00:02:29.258Z,4.9647
2023-04-15T00:03:30.087Z,4.9736
2023-04-15T00:04:30.983Z,4.9176
2023-04-15T00:05:31.538Z,5.1640
2023-04-15T00:06:32.100Z,5.2666
2023-04-15T00:07:32.637Z,5.0662
2023-04-15T00:08:33.198Z,5.0435
2023-04-15T00:09:34.308Z,5.0690
2023-04-15T00:10:34.833Z,5.1503
2023-04-15T00:11:35.366Z,5.0223
2023-04-15T00:12:36.064Z,5.0803
2023-04-15T00:13:36.569Z,5.0745
2023-04-15T00:14:37.147Z,4.9444
2023-04-15T00:15:37.714Z,4.9081
2023-04-15T00:16:38.318Z,4.8772
2023-04-15T00:17:38.905Z,4.8654
2023-04-15T00:18:39.466Z,4.9887
2023-04-15T00:19:40.294Z,5.0234
2023-04-15T00:20:40.814Z,5.1637
2023-04-15T00:21:41.333Z,4.9656
2023-04-15T00:22:41.891Z,4.9180
2023-04-15T00:23:42.446Z,4.7154
2023-04-15T00:24:43.256Z,4.3973
2023-04-15T00:25:43.851Z,4.3240
2023-04-15T00:26:44.375Z,4.4642
2023-04-15T00:27:44.945Z,4.2343
2023-04-15T00:28:45.514Z,4.1997
2023-04-15T00:29:46.311Z,4.2310
2023-04-15T00:30:46.944Z,4.2746
2023-04-15T00:31:47.471Z,4.3948
2023-04-15T00:32:48.086Z,4.3887
2023-04-15T00:33:48.624Z,4.2566
2023-04-15T00:34:49.156Z,4.2732
2023-04-15T00:35:49.681Z,4.2462
2023-04-15T00:36:50.248Z,4.4360
2023-04-15T00:37:50.806Z,4.5990
2023-04-15T00:38:51.388Z,4.8277
2023-04-15T00:39:52.012Z,4.7644
2023-04-15T00:40:52.558Z,4.6777
2023-04-15T00:41:53.129Z,4.7578
2023-04-15T00:42:53.666Z,4.7762
2023-04-15T00:43:54.212Z,4.7957
2023-04-15T00:44:54.781Z,4.9633
2023-04-15T00:45:55.440Z,4.8773
2023-04-15T00:46:56.315Z,4.9757
2023-04-15T00:47:56.934Z,5.0674
2023-04-15T00:48:57.836Z,5.1869
2023-04-15T00:49:58.406Z,5.1833
2023-04-15T00:50:58.973Z,5.2069
2023-04-15T00:51:59.728Z,5.1986
2023-04-15T00:53:00.313Z,5.2744
2023-04-15T00:54:00.850Z,5.2422
2023-04-15T00:55:01.445Z,5.1673
2023-04-15T00:56:02.011Z,5.0960
2023-04-15T00:57:02.667Z,5.0471
2023-04-15T00:59:06.310Z,5.0208
2023-04-15T01:00:06.921Z,4.9887
2023-04-15T01:01:09.115Z,5.1619
2023-04-15T01:02:09.749Z,5.1423
2023-04-15T01:07:13.785Z,5.1565
2023-04-15T01:10:53.283Z,5.1282
2023-04-15T01:11:47.022Z,5.0571
2023-04-15T01:12:47.577Z,5.0047
2023-04-15T01:13:48.294Z,4.9639
2023-04-15T01:14:48.382Z,4.9155
2023-04-15T01:15:49.021Z,4.9295
2023-04-15T01:16:49.829Z,4.9168
2023-04-15T01:17:50.414Z,4.9342
2023-04-15T01:18:50.947Z,4.8777
2023-04-15T01:19:51.501Z,4.8305
2023-04-15T01:20:52.034Z,4.8109
2023-04-15T01:21:52.697Z,4.8510
2023-04-15T01:22:53.180Z,4.7980
2023-04-15T01:23:53.734Z,4.7696
2023-04-15T01:24:54.473Z,4.8092
2023-04-15T01:25:55.019Z,4.8155
2023-04-15T01:26:55.604Z,4.8183
2023-04-15T01:28:10.865Z,4.8257
2023-04-15T01:28:57.291Z,4.7879
2023-04-15T01:29:57.891Z,4.9110
2023-04-15T01:30:58.391Z,5.3742
2023-04-15T01:31:59.052Z,5.1405
2023-04-15T01:32:59.640Z,5.1383
2023-04-15T01:34:00.207Z,5.1712
2023-04-15T01:35:00.717Z,5.2850
2023-04-15T01:36:01.249Z,5.3335
2023-04-15T01:37:01.881Z,5.3509
2023-04-15T01:38:02.461Z,5.3856
2023-04-15T01:39:03.099Z,5.3838
2023-04-15T01:40:03.727Z,5.3619
2023-04-15T01:41:04.301Z,5.3377
2023-04-15T01:42:04.827Z,5.3203
2023-04-15T01:43:05.398Z,5.2256
2023-04-15T01:44:05.929Z,5.1891
2023-04-15T01:45:06.468Z,5.1637
2023-04-15T01:46:06.998Z,5.1268
2023-04-15T01:47:07.546Z,5.0844
2023-04-15T01:48:08.138Z,5.1761
2023-04-15T01:49:08.937Z,5.1968
2023-04-15T01:50:09.462Z,5.2488
2023-04-15T01:51:10.043Z,5.1975
2023-04-15T01:52:10.583Z,5.1739
2023-04-15T01:53:11.154Z,5.1214
2023-04-15T01:54:12.300Z,5.0479
2023-04-15T01:55:12.858Z,4.9893
2023-04-15T01:56:15.283Z,4.8436
2023-04-15T01:57:15.104Z,4.7776
2023-04-15T01:58:15.592Z,4.7693
2023-04-15T01:59:16.326Z,4.8272
2023-04-15T02:00:16.844Z,4.8296
2023-04-15T02:01:17.431Z,4.8618
2023-04-15T02:02:17.987Z,4.8290
2023-04-15T02:03:18.640Z,4.8833
2023-04-15T02:04:20.768Z,4.9176
2023-04-15T02:05:24.807Z,4.9932
2023-04-15T02:06:25.359Z,4.9843
2023-04-15T02:07:25.884Z,4.9816
2023-04-15T02:08:26.420Z,5.0010
2023-04-15T02:09:26.965Z,5.0723
2023-04-15T02:10:27.539Z,5.0412
2023-04-15T02:11:28.301Z,5.0044
2023-04-15T02:12:28.809Z,4.9945
2023-04-15T02:13:29.356Z,4.9931
2023-04-15T02:14:29.858Z,5.0382
2023-04-15T02:15:30.381Z,5.0096
2023-04-15T02:16:30.983Z,4.9890
2023-04-15T02:17:31.526Z,4.9592
2023-04-15T02:18:32.032Z,4.9991
2023-04-15T02:19:32.556Z,4.9977
2023-04-15T02:20:33.089Z,4.9967
2023-04-15T02:21:34.258Z,4.9815
2023-04-15T02:22:34.877Z,5.0704
2023-04-15T02:23:35.438Z,5.0475
2023-04-15T02:24:35.931Z,5.0591
2023-04-15T02:25:36.453Z,5.0255
2023-04-15T02:26:37.013Z,4.9579
2023-04-15T02:27:37.546Z,4.9174
2023-04-15T02:28:38.077Z,4.9097
2023-04-15T02:29:38.665Z,4.8048
2023-04-15T02:30:39.195Z,4.7481
2023-04-15T02:31:40.015Z,4.7603
2023-04-15T02:32:40.594Z,4.7785
2023-04-15T02:33:41.105Z,4.8261
2023-04-15T02:34:41.660Z,4.8890
2023-04-15T02:35:42.233Z,4.8643
2023-04-15T02:36:42.807Z,4.7965
2023-04-15T02:37:43.434Z,5.0090
2023-04-15T02:38:44.055Z,5.0104
2023-04-15T02:39:44.582Z,5.0143
2023-04-15T02:40:45.142Z,4.9868
2023-04-15T02:41:45.977Z,5.0052
2023-04-15T02:42:46.581Z,5.0462
2023-04-15T02:43:47.112Z,5.0390
2023-04-15T02:44:47.680Z,4.9771
2023-04-15T02:45:48.398Z,4.9345
2023-04-15T02:46:49.094Z,4.9262
2023-04-15T02:47:49.707Z,4.9312
2023-04-15T02:48:50.485Z,4.8987
2023-04-15T02:49:51.002Z,4.9603
2023-04-15T02:50:52.048Z,4.9584
2023-04-15T02:51:52.857Z,5.0299
2023-04-15T02:52:53.385Z,4.9023
2023-04-15T02:53:53.973Z,4.9323
2023-04-15T02:54:54.530Z,4.9031
2023-04-15T02:55:55.065Z,4.8676
2023-04-15T02:56:55.814Z,4.8728
2023-04-15T02:57:56.365Z,4.8769
2023-04-15T02:58:56.960Z,4.8233
2023-04-15T02:59:57.454Z,4.9681
2023-04-15T03:00:57.998Z,4.9757
2023-04-15T03:01:58.549Z,4.8989
2023-04-15T03:02:59.215Z,4.8938
2023-04-15T03:03:59.904Z,4.9053
2023-04-15T03:05:00.425Z,4.9637
2023-04-15T03:06:00.943Z,4.9666
2023-04-15T03:07:01.487Z,4.9678
2023-04-15T03:08:02.032Z,4.9937
2023-04-15T03:09:02.731Z,5.0123
2023-04-15T03:10:03.324Z,4.9873
2023-04-15T03:11:03.895Z,4.9648
2023-04-15T03:12:04.421Z,4.9615
2023-04-15T03:13:04.986Z,4.9292
2023-04-15T03:14:05.547Z,4.9135
2023-04-15T03:15:06.083Z,4.8899
2023-04-15T03:16:06.718Z,4.9334
2023-04-15T03:17:07.275Z,4.9551
2023-04-15T03:18:07.928Z,4.9772
2023-04-15T03:19:08.484Z,5.0068
2023-04-15T03:20:09.061Z,5.0415
2023-04-15T03:21:09.563Z,5.0908
2023-04-15T03:22:10.122Z,5.0608
2023-04-15T03:23:10.650Z,5.0113
2023-04-15T03:24:11.219Z,4.9939
2023-04-15T03:25:11.748Z,4.9884
2023-04-15T03:26:12.300Z,5.0588
2023-04-15T03:27:12.804Z,5.0721
2023-04-15T03:28:13.345Z,5.1202
2023-04-15T03:29:15.424Z,5.0756
2023-04-15T03:30:15.935Z,5.0947
2023-04-15T03:31:16.828Z,5.1031
2023-04-15T03:32:17.339Z,5.1191
2023-04-15T03:33:17.890Z,5.1565
2023-04-15T03:34:18.442Z,5.1170
2023-04-15T03:35:19.012Z,5.1120
2023-04-15T03:36:19.541Z,5.0946
2023-04-15T03:37:20.054Z,5.0803
2023-04-15T03:38:20.621Z,5.1924
2023-04-15T03:39:21.174Z,5.1736
2023-04-15T03:40:21.706Z,5.2060
2023-04-15T03:41:22.500Z,5.2535
2023-04-15T03:42:23.003Z,5.2001
2023-04-15T03:43:23.574Z,5.1166
2023-04-15T03:44:24.129Z,5.2419
2023-04-15T03:45:24.690Z,5.1887
2023-04-15T03:46:25.487Z,5.1863
2023-04-15T03:47:25.991Z,5.1416
2023-04-15T03:48:26.516Z,5.1540
2023-04-15T03:49:27.076Z,5.1342
2023-04-15T03:50:27.593Z,5.1800
2023-04-15T03:51:28.135Z,5.2118
2023-04-15T03:52:28.697Z,5.1829
2023-04-15T03:53:29.288Z,5.2034
2023-04-15T03:54:29.833Z,5.1441
2023-04-15T03:55:30.361Z,5.1538
2023-04-15T03:56:31.126Z,5.1216
2023-04-15T03:57:31.692Z,5.1921
2023-04-15T03:58:32.282Z,5.1219
2023-04-15T03:59:32.850Z,5.0826
2023-04-15T04:00:33.401Z,5.0746
2023-04-15T04:01:34.021Z,5.1166
2023-04-15T04:02:34.612Z,5.1598
2023-04-15T04:03:35.357Z,5.0751
2023-04-15T04:04:36.056Z,5.1020
2023-04-15T04:05:36.572Z,5.1452
2023-04-15T04:06:37.109Z,5.1406
2023-04-15T04:07:37.652Z,5.1028
2023-04-15T04:08:38.283Z,5.0922
2023-04-15T04:09:38.809Z,5.0781
2023-04-15T04:10:39.402Z,5.0845
2023-04-15T04:11:40.262Z,5.1301
2023-04-15T04:12:40.769Z,5.1372
2023-04-15T04:13:41.394Z,5.1368
2023-04-15T04:14:41.934Z,5.1555
2023-04-15T04:15:42.480Z,5.1623
2023-04-15T04:16:44.886Z,5.1599
2023-04-15T04:17:45.406Z,5.2824
2023-04-15T04:18:45.984Z,5.1953
2023-04-15T04:19:46.554Z,5.2661
2023-04-15T04:20:47.102Z,5.2311
2023-04-15T04:21:47.872Z,5.1714
2023-04-15T04:22:48.427Z,5.1488
2023-04-15T04:23:49.017Z,5.1379
2023-04-15T04:24:49.538Z,5.1588
2023-04-15T04:25:50.076Z,5.3765
2023-04-15T04:26:50.609Z,5.3066
2023-04-15T04:27:51.172Z,5.2415
2023-04-15T04:28:51.918Z,5.1860
2023-04-15T04:29:52.478Z,5.1474
2023-04-15T04:30:52.997Z,5.2653
2023-04-15T04:31:53.630Z,5.1475
2023-04-15T04:32:54.191Z,5.2883
2023-04-15T04:33:54.718Z,5.2950
2023-04-15T04:34:55.246Z,5.3344
2023-04-15T04:35:55.778Z,5.1890
2023-04-15T04:36:56.353Z,5.1645
2023-04-15T04:37:56.907Z,5.3740
2023-04-15T04:38:57.441Z,5.3443
2023-04-15T04:39:57.957Z,5.5327
2023-04-15T04:40:58.463Z,5.3622
2023-04-15T04:41:59.244Z,5.3388
2023-04-15T04:42:59.807Z,5.3090
2023-04-15T04:44:00.353Z,5.3486
2023-04-15T04:45:00.892Z,5.3348
2023-04-15T04:46:01.481Z,5.3059
2023-04-15T04:47:02.072Z,5.3269
2023-04-15T04:48:02.759Z,5.3831
2023-04-15T04:49:03.770Z,5.5393
2023-04-15T04:50:04.359Z,5.2694
2023-04-15T04:51:04.910Z,5.2157
2023-04-15T04:52:05.444Z,5.2349
2023-04-15T04:53:05.974Z,5.2375
2023-04-15T04:54:06.787Z,5.3157
2023-04-15T04:55:07.337Z,5.2884
2023-04-15T04:56:07.872Z,5.2452
2023-04-15T04:57:08.423Z,5.2975
2023-04-15T04:58:09.008Z,5.1888
2023-04-15T04:59:09.557Z,5.1708
2023-04-15T05:00:10.142Z,5.3883
2023-04-15T05:01:10.781Z,5.4365
2023-04-15T05:02:11.341Z,5.5275
2023-04-15T05:03:12.148Z,5.3764
2023-04-15T05:04:13.182Z,5.2994
2023-04-15T05:05:13.768Z,5.3663
2023-04-15T05:06:14.320Z,5.3318
2023-04-15T05:07:14.898Z,5.2820
2023-04-15T05:08:15.507Z,5.2595
2023-04-15T05:09:16.378Z,5.2644
2023-04-15T05:10:16.957Z,5.3172
2023-04-15T05:11:17.467Z,5.3370
2023-04-15T05:12:17.988Z,5.3162
2023-04-15T05:13:18.545Z,5.2875
2023-04-15T05:14:19.138Z,5.2710
2023-04-15T05:15:19.679Z,5.2762
2023-04-15T05:16:20.295Z,5.3682
2023-04-15T05:17:20.903Z,5.3239
2023-04-15T05:18:21.447Z,5.4277
2023-04-15T05:19:22.012Z,5.6286
2023-04-15T05:20:22.547Z,5.5156
2023-04-15T05:21:23.079Z,5.4343
2023-04-15T05:22:23.634Z,5.4763
2023-04-15T05:23:24.517Z,5.4502
2023-04-15T05:24:25.066Z,5.4581
2023-04-15T05:25:25.584Z,5.4975
2023-04-15T05:26:26.143Z,5.5646
2023-04-15T05:27:26.725Z,5.5259
2023-04-15T05:28:27.271Z,5.5652
2023-04-15T05:29:27.817Z,5.5426
2023-04-15T05:30:28.348Z,5.5991
2023-04-15T05:31:29.209Z,5.6514
2023-04-15T05:32:29.840Z,5.6316
2023-04-15T05:33:30.416Z,5.5690
2023-04-15T05:34:31.035Z,5.5052
2023-04-15T05:35:31.603Z,5.5137
2023-04-15T05:36:32.189Z,5.6720
2023-04-15T05:37:32.764Z,5.6590
2023-04-15T05:38:33.556Z,5.7683
2023-04-15T05:39:34.163Z,5.7881
2023-04-15T05:40:34.755Z,5.9224
2023-04-15T05:41:35.336Z,5.7529
2023-04-15T05:42:35.899Z,5.6956
2023-04-15T05:43:36.521Z,5.8303
2023-04-15T05:44:37.153Z,5.7923
2023-04-15T05:45:37.729Z,5.8668
2023-04-15T05:46:38.583Z,5.7592
2023-04-15T05:47:39.259Z,5.7553
2023-04-15T05:48:39.895Z,5.8726
2023-04-15T05:49:40.492Z,6.0358
2023-04-15T05:50:41.071Z,6.0787
2023-04-15T05:51:41.733Z,5.9002
2023-04-15T05:52:42.277Z,6.0762
2023-04-15T05:53:42.851Z,6.1409
2023-04-15T05:54:43.438Z,6.1305
2023-04-15T05:55:44.040Z,5.9712
2023-04-15T05:56:44.617Z,6.0443
2023-04-15T05:57:45.227Z,6.0165
2023-04-15T05:58:46.017Z,6.2215
2023-04-15T05:59:46.562Z,6.1019
2023-04-15T06:00:47.149Z,6.3086
2023-04-15T06:01:47.981Z,6.1586
2023-04-15T06:02:48.661Z,6.1099
2023-04-15T06:03:49.445Z,6.0143
2023-04-15T06:04:50.186Z,6.0482
2023-04-15T06:05:50.688Z,5.9829
2023-04-15T06:06:51.256Z,6.0441
2023-04-15T06:07:51.823Z,6.1032
2023-04-15T06:08:52.458Z,6.0603
2023-04-15T06:09:53.040Z,6.1588
2023-04-15T06:10:53.622Z,6.3446
2023-04-15T06:11:54.310Z,6.4940
2023-04-15T06:12:54.838Z,6.6052
2023-04-15T06:13:55.414Z,6.8820
2023-04-15T06:14:56.022Z,6.9269
2023-04-15T06:15:56.605Z,6.8876
2023-04-15T06:16:57.247Z,6.7409
2023-04-15T06:17:57.830Z,7.0177
2023-04-15T06:18:58.436Z,6.8748
2023-04-15T06:19:59.016Z,6.9564
2023-04-15T06:20:59.622Z,6.6914
2023-04-15T06:22:00.228Z,6.8220
2023-04-15T06:23:00.823Z,6.8991
2023-04-15T06:24:01.473Z,6.8988
2023-04-15T06:25:02.116Z,6.9866
2023-04-15T06:26:02.712Z,7.0270
2023-04-15T06:27:03.312Z,7.0808
2023-04-15T06:28:03.898Z,7.2945
2023-04-15T06:29:04.483Z,7.3113
2023-04-15T06:30:05.088Z,7.2580
2023-04-15T06:31:07.269Z,7.4787
2023-04-15T06:32:07.827Z,7.3242
2023-04-15T06:33:08.467Z,7.4275
2023-04-15T06:34:09.105Z,7.5763
2023-04-15T06:35:09.698Z,7.7448
2023-04-15T06:36:10.355Z,7.5287
2023-04-15T06:37:10.904Z,7.6430
2023-04-15T06:38:11.503Z,7.4523
2023-04-15T06:39:12.079Z,7.4759
2023-04-15T06:40:12.675Z,7.6287
2023-04-15T06:41:13.256Z,7.3149
2023-04-15T06:42:13.848Z,7.4811
2023-04-15T06:43:14.477Z,7.9510
2023-04-15T06:44:15.080Z,7.3848
2023-04-15T06:45:15.701Z,7.7181
2023-04-15T06:46:16.368Z,7.6119
2023-04-15T06:47:17.017Z,7.6744
2023-04-15T06:48:17.629Z,7.7377
2023-04-15T06:49:18.237Z,7.6418
2023-04-15T06:50:18.866Z,7.5843
2023-04-15T06:51:19.457Z,7.8717
2023-04-15T06:52:20.074Z,7.4907
2023-04-15T06:53:20.624Z,7.0499
2023-04-15T06:54:21.234Z,7.4302
2023-04-15T06:55:21.828Z,7.7054
2023-04-15T06:56:22.408Z,7.4649
2023-04-15T06:57:23.017Z,7.5450
2023-04-15T06:58:23.571Z,7.4716
2023-04-15T06:59:24.145Z,7.2205
2023-04-15T07:00:24.779Z,7.4471
2023-04-15T07:01:25.390Z,7.5065
2023-04-15T07:02:26.127Z,7.2946
2023-04-15T07:03:26.731Z,7.3549
2023-04-15T07:04:27.335Z,7.4746
2023-04-15T07:05:27.985Z,7.7296
2023-04-15T07:06:28.625Z,7.9162
2023-04-15T07:07:29.191Z,7.6623
2023-04-15T07:08:30.025Z,7.5720
2023-04-15T07:09:30.595Z,7.9484
2023-04-15T07:10:31.190Z,7.4880
2023-04-15T07:11:31.789Z,7.7456
2023-04-15T07:12:32.365Z,7.8389
2023-04-15T07:13:32.936Z,7.7897
2023-04-15T07:14:33.520Z,8.2533
2023-04-15T07:15:34.123Z,8.3562
2023-04-15T07:16:34.770Z,8.3233
2023-04-15T07:17:35.411Z,7.9559
2023-04-15T07:18:35.993Z,7.7900
2023-04-15T07:19:36.590Z,7.6210
2023-04-15T07:20:37.232Z,7.9712
2023-04-15T07:21:38.928Z,7.7544
2023-04-15T07:22:40.522Z,8.1395
2023-04-15T07:23:41.347Z,8.2881
2023-04-15T07:24:41.922Z,7.8406
2023-04-15T07:25:42.541Z,7.8188
2023-04-15T07:26:43.105Z,8.0827
2023-04-15T07:27:43.691Z,8.1411
2023-04-15T07:28:44.307Z,8.1036
2023-04-15T07:29:44.902Z,8.0786
2023-04-15T07:30:45.499Z,7.9190
2023-04-15T07:31:46.119Z,7.6108
2023-04-15T07:32:46.758Z,7.6754
2023-04-15T07:33:47.303Z,8.1581
2023-04-15T07:34:47.908Z,7.9228
2023-04-15T07:35:48.530Z,7.6077
2023-04-15T07:36:49.116Z,7.3994
2023-04-15T07:37:49.912Z,7.8317
2023-04-15T07:38:50.495Z,7.9160
2023-04-15T07:39:51.124Z,7.9240
2023-04-15T07:40:51.865Z,7.1030
2023-04-15T07:41:52.438Z,6.8820
2023-04-15T07:42:53.009Z,6.8529
2023-04-15T07:43:53.685Z,6.7062
2023-04-15T07:44:54.259Z,6.9311
2023-04-15T07:45:55.114Z,7.1462
2023-04-15T07:46:55.659Z,7.5541
2023-04-15T07:47:56.381Z,7.5672
2023-04-15T07:48:56.986Z,7.6185
2023-04-15T07:49:57.616Z,7.6886
2023-04-15T07:50:58.226Z,7.5910
2023-04-15T07:51:58.826Z,7.1961
2023-04-15T07:52:59.665Z,7.1134
2023-04-15T07:54:00.241Z,7.6012
2023-04-15T07:55:00.874Z,7.6986
2023-04-15T07:56:01.733Z,7.6952
2023-04-15T07:57:02.330Z,7.7479
2023-04-15T07:58:03.041Z,7.9763
2023-04-15T07:59:03.805Z,8.0114
2023-04-15T08:00:04.566Z,8.1835
2023-04-15T08:01:05.171Z,7.9642
2023-04-15T08:02:05.932Z,7.5637
2023-04-15T08:03:06.573Z,8.1034
2023-04-15T08:04:07.377Z,7.3081
2023-04-15T08:05:07.982Z,7.2090
2023-04-15T08:06:08.577Z,7.0529
2023-04-15T08:07:09.157Z,7.4988
2023-04-15T08:08:09.751Z,7.6152
2023-04-15T08:09:10.357Z,7.8537
2023-04-15T08:10:11.112Z,8.0150
2023-04-15T08:11:11.921Z,7.9360
2023-04-15T08:12:12.505Z,8.1435
2023-04-15T08:13:13.106Z,8.5472
2023-04-15T08:14:13.689Z,8.5373
2023-04-15T08:15:14.296Z,8.3967
2023-04-15T08:16:14.866Z,8.7091
2023-04-15T08:17:15.627Z,8.8827
2023-04-15T08:18:16.277Z,8.7556
2023-04-15T08:19:16.872Z,8.8142
2023-04-15T08:20:17.503Z,8.3744
2023-04-15T08:21:18.165Z,8.0588
2023-04-15T08:22:20.105Z,8.4397
2023-04-15T08:23:22.175Z,8.3178
2023-04-15T08:24:22.818Z,8.4835
2023-04-15T08:25:23.430Z,8.5517
2023-04-15T08:26:24.022Z,8.2107
2023-04-15T08:27:24.608Z,8.0554
2023-04-15T08:28:25.199Z,8.1846
2023-04-15T08:29:25.838Z,9.0654
2023-04-15T08:30:26.666Z,9.5198
2023-04-15T08:31:27.403Z,9.5817
2023-04-15T08:32:27.985Z,9.3514
2023-04-15T08:33:28.904Z,9.2769
2023-04-15T08:34:29.484Z,9.2669
2023-04-15T08:35:30.158Z,9.7004
2023-04-15T08:36:30.759Z,9.8368
2023-04-15T08:37:31.551Z,9.2432
2023-04-15T08:38:32.167Z,9.0627
2023-04-15T08:39:32.835Z,9.1909
2023-04-15T08:40:33.689Z,8.8817
2023-04-15T08:41:34.275Z,8.5736
2023-04-15T08:42:34.901Z,8.2976
2023-04-15T08:43:35.526Z,8.3540
2023-04-15T08:44:36.102Z,8.3478
2023-04-15T08:45:36.692Z,8.4232
2023-04-15T08:46:37.371Z,8.9973
2023-04-15T08:47:38.204Z,9.3894
2023-04-15T08:48:38.817Z,9.7012
2023-04-15T08:49:39.481Z,9.6728
2023-04-15T08:50:40.124Z,9.3382
2023-04-15T08:51:40.731Z,9.3282
2023-04-15T08:52:41.555Z,9.0891
2023-04-15T08:53:42.179Z,9.4639
2023-04-15T08:54:42.779Z,9.7658
2023-04-15T08:55:43.567Z,9.9288
2023-04-15T08:56:44.379Z,9.6148
2023-04-15T08:57:44.953Z,9.4298
2023-04-15T08:58:45.508Z,9.6197
2023-04-15T08:59:46.086Z,9.4888
2023-04-15T09:00:46.760Z,9.8814
2023-04-15T09:01:47.445Z,9.8500
2023-04-15T09:02:48.152Z,9.7050
2023-04-15T09:03:48.852Z,9.4339
2023-04-15T09:04:49.537Z,9.2169
2023-04-15T09:05:51.461Z,8.9056
2023-04-15T09:06:50.227Z,9.3026
2023-04-15T09:07:50.858Z,9.4282
2023-04-15T09:08:51.385Z,9.1640
2023-04-15T09:09:51.949Z,9.3718
2023-04-15T09:10:52.559Z,8.7927
2023-04-15T09:11:53.158Z,9.0065
2023-04-15T09:12:53.769Z,9.1759
2023-04-15T09:13:54.357Z,9.1781
2023-04-15T09:14:54.932Z,9.5203
2023-04-15T09:15:55.497Z,9.0134
2023-04-15T09:16:56.106Z,9.3190
2023-04-15T09:17:56.715Z,9.0866
2023-04-15T09:18:57.326Z,9.0204
2023-04-15T09:19:57.908Z,9.0215
2023-04-15T09:20:58.490Z,8.4479
2023-04-15T09:21:59.414Z,8.3967
2023-04-15T09:23:00.440Z,9.1544
2023-04-15T09:24:01.403Z,9.8135
2023-04-15T09:25:02.437Z,9.1353
2023-04-15T09:26:03.052Z,9.5724
2023-04-15T09:27:03.680Z,10.0099
2023-04-15T09:28:04.494Z,9.8355
2023-04-15T09:29:05.101Z,10.5818
2023-04-15T09:30:05.668Z,10.0840
2023-04-15T09:31:06.283Z,9.1422
2023-04-15T09:32:06.869Z,9.4518
2023-04-15T09:33:07.511Z,9.9483
2023-04-15T09:34:08.056Z,10.4216
2023-04-15T09:35:08.893Z,9.9119
2023-04-15T09:36:09.587Z,9.7367
2023-04-15T09:37:10.543Z,10.3807
2023-04-15T09:38:11.113Z,10.7073
2023-04-15T09:39:11.680Z,10.3865
2023-04-15T09:40:12.269Z,10.1608
2023-04-15T09:41:12.842Z,10.2702
2023-04-15T09:42:13.427Z,10.4946
2023-04-15T09:43:14.032Z,10.8939
2023-04-15T09:44:14.582Z,10.5099
2023-04-15T09:45:15.200Z,10.5549
2023-04-15T09:46:15.793Z,10.2053
2023-04-15T09:47:16.672Z,9.9675
2023-04-15T09:48:17.299Z,10.3319
2023-04-15T09:49:17.973Z,10.3839
2023-04-15T09:50:18.551Z,10.0579
2023-04-15T09:51:19.213Z,10.2101
2023-04-15T09:52:19.794Z,10.5768
2023-04-15T09:53:20.387Z,10.7865
2023-04-15T09:54:20.974Z,10.7224
2023-04-15T09:55:21.552Z,10.5012
2023-04-15T09:56:22.138Z,9.1868
2023-04-15T09:57:22.693Z,9.3049
2023-04-15T09:58:23.278Z,9.9147
2023-04-15T09:59:23.844Z,9.9499
2023-04-15T10:00:24.985Z,10.1867
2023-04-15T10:01:25.565Z,9.7686
2023-04-15T10:02:26.287Z,9.8338
2023-04-15T10:03:27.000Z,10.3300
2023-04-15T10:04:27.958Z,10.3019
2023-04-15T10:05:29.775Z,10.0485
2023-04-15T10:06:30.777Z,9.4808
2023-04-15T10:07:31.349Z,9.4266
2023-04-15T10:08:31.958Z,9.5166
2023-04-15T10:09:32.553Z,9.5000
2023-04-15T10:10:33.133Z,9.5261
2023-04-15T10:11:33.692Z,9.3380
2023-04-15T10:12:34.315Z,8.8299
2023-04-15T10:13:34.877Z,9.1525
2023-04-15T10:14:35.506Z,9.2820
2023-04-15T10:15:36.090Z,9.3330
2023-04-15T10:16:36.634Z,9.5636
2023-04-15T10:17:37.461Z,9.6054
2023-04-15T10:18:38.150Z,9.6934
2023-04-15T10:19:38.771Z,9.4711
2023-04-15T10:20:39.365Z,9.3665
2023-04-15T10:21:39.949Z,8.7856
2023-04-15T10:22:40.757Z,8.9491
2023-04-15T10:23:41.280Z,9.5294
2023-04-15T10:25:44.935Z,9.4491
2023-04-15T10:26:45.556Z,9.4271
2023-04-15T10:27:46.122Z,9.7267
2023-04-15T10:28:46.710Z,9.4877
2023-04-15T10:29:47.299Z,9.6078
2023-04-15T10:30:47.880Z,8.5060
2023-04-15T10:31:48.576Z,8.5421
2023-04-15T10:32:49.169Z,8.4507
2023-04-15T10:33:49.733Z,8.8923
2023-04-15T10:34:51.071Z,8.8338
2023-04-15T10:35:52.414Z,8.8952
2023-04-15T10:36:52.978Z,9.1810
2023-04-15T10:37:53.552Z,8.5172
2023-04-15T10:38:54.132Z,8.1124
2023-04-15T10:39:54.910Z,8.1480
2023-04-15T10:40:55.514Z,8.5048
2023-04-15T10:41:56.167Z,8.8580
2023-04-15T10:42:56.725Z,9.0072
2023-04-15T10:43:57.295Z,9.4631
2023-04-15T10:44:57.868Z,9.2209
2023-04-15T10:45:58.445Z,8.7141
2023-04-15T10:46:59.277Z,9.5372
2023-04-15T10:48:01.596Z,9.2982
2023-04-15T10:49:00.359Z,9.5470
2023-04-15T10:50:00.985Z,8.7451
2023-04-15T10:51:01.591Z,8.9617
2023-04-15T10:52:02.167Z,8.4281
2023-04-15T10:53:02.726Z,8.6747
2023-04-15T10:54:03.536Z,8.2594
2023-04-15T10:55:04.114Z,8.4187
2023-04-15T10:56:04.682Z,7.9242
2023-04-15T10:57:05.250Z,8.4224
2023-04-15T10:58:05.866Z,8.5662
2023-04-15T10:59:06.431Z,9.1216
2023-04-15T11:00:07.001Z,9.2059
2023-04-15T11:01:07.616Z,9.8248
2023-04-15T11:02:08.479Z,9.5182
2023-04-15T11:03:09.518Z,9.5861
2023-04-15T11:04:10.543Z,8.9263
2023-04-15T11:05:11.097Z,8.1213
2023-04-15T11:06:11.669Z,8.1130
2023-04-15T11:07:12.257Z,8.8946
2023-04-15T11:08:12.868Z,8.5406
2023-04-15T11:09:13.690Z,8.8264
2023-04-15T11:10:14.279Z,9.1855
2023-04-15T11:11:14.831Z,9.5834
2023-04-15T11:12:15.445Z,9.4182
2023-04-15T11:13:16.062Z,9.0914
2023-04-15T11:14:16.632Z,8.4754
2023-04-15T11:15:17.199Z,8.8756
2023-04-15T11:16:17.820Z,9.0504
2023-04-15T11:17:18.698Z,8.8517
2023-04-15T11:18:19.297Z,8.9532
2023-04-15T11:19:19.908Z,8.6998
2023-04-15T11:20:20.499Z,8.5844
2023-04-15T11:21:21.088Z,8.7311
2023-04-15T11:22:21.666Z,8.9356
2023-04-15T11:23:22.534Z,8.9290
2023-04-15T11:24:23.318Z,8.9274
2023-04-15T11:25:24.043Z,9.0682
2023-04-15T11:26:24.697Z,8.3602
2023-04-15T11:27:25.293Z,8.1259
2023-04-15T11:28:25.856Z,8.3898
2023-04-15T11:29:26.465Z,8.2837
2023-04-15T11:30:27.080Z,8.2696
2023-04-15T11:31:27.701Z,8.5605
2023-04-15T11:32:28.282Z,8.6548
2023-04-15T11:33:28.911Z,7.9851
2023-04-15T11:34:29.493Z,8.1567
2023-04-15T11:35:30.084Z,8.1754
2023-04-15T11:36:30.645Z,8.2655
2023-04-15T11:37:31.252Z,7.8862
2023-04-15T11:38:31.834Z,7.8339
2023-04-15T11:39:32.429Z,7.7578
2023-04-15T11:40:32.980Z,7.9757
2023-04-15T11:41:33.579Z,8.4323
2023-04-15T11:42:48.741Z,7.9355
2023-04-15T11:43:37.148Z,7.9009
2023-04-15T11:44:37.735Z,7.8896
2023-04-15T11:45:38.340Z,7.9999
2023-04-15T11:46:38.912Z,7.9798
2023-04-15T11:47:39.509Z,8.3670
2023-04-15T11:48:40.113Z,8.3365
2023-04-15T11:49:40.953Z,8.4766
2023-04-15T11:50:41.559Z,8.2190
2023-04-15T11:51:42.099Z,8.1853
2023-04-15T11:52:42.656Z,7.9789
2023-04-15T11:53:43.281Z,8.4327
2023-04-15T11:54:43.873Z,9.0219
2023-04-15T11:55:44.683Z,9.3066
2023-04-15T11:56:45.244Z,9.6283
2023-04-15T11:57:45.839Z,9.7587
2023-04-15T11:58:46.572Z,9.3296
2023-04-15T11:59:47.220Z,9.2460
2023-04-15T12:00:47.878Z,9.0965
2023-04-15T12:01:48.711Z,8.2591
2023-04-15T12:02:49.360Z,8.0667
2023-04-15T12:03:50.545Z,8.4776
2023-04-15T12:04:51.360Z,8.7308
2023-04-15T12:05:51.976Z,8.8555
2023-04-15T12:06:52.585Z,8.4429
2023-04-15T12:07:53.210Z,8.6876
2023-04-15T12:08:53.816Z,9.6648
2023-04-15T12:09:54.443Z,10.5045
2023-04-15T12:10:55.070Z,10.4555
2023-04-15T12:11:55.664Z,10.3884
2023-04-15T12:12:56.284Z,9.1211
2023-04-15T12:13:56.885Z,8.7839
2023-04-15T12:14:57.541Z,8.5637
2023-04-15T12:15:58.186Z,8.4691
2023-04-15T12:16:58.813Z,8.5877
2023-04-15T12:17:59.743Z,9.5445
2023-04-15T12:19:02.342Z,9.5212
2023-04-15T12:20:02.993Z,9.9020
2023-04-15T12:21:03.587Z,9.0311
2023-04-15T12:22:04.212Z,10.1534
2023-04-15T12:23:04.807Z,10.4890
2023-04-15T12:24:05.687Z,9.8632
2023-04-15T12:25:06.438Z,10.9544
2023-04-15T12:26:07.055Z,11.1903
2023-04-15T12:27:07.826Z,10.0281
2023-04-15T12:28:08.439Z,10.0614
2023-04-15T12:29:09.074Z,9.6469
2023-04-15T12:30:09.691Z,9.6420
2023-04-15T12:31:10.338Z,10.0925
2023-04-15T12:32:10.924Z,10.2012
2023-04-15T12:33:11.541Z,10.1418
2023-04-15T12:34:12.156Z,9.1016
2023-04-15T12:35:12.786Z,9.4940
2023-04-15T12:36:13.413Z,9.1816
2023-04-15T12:37:14.015Z,9.1015
2023-04-15T12:38:14.634Z,9.6330
2023-04-15T12:39:15.263Z,9.8919
2023-04-15T12:40:15.891Z,9.3682
2023-04-15T12:41:16.701Z,9.3596
2023-04-15T12:42:17.356Z,9.3552
2023-04-15T12:43:17.951Z,9.3190
2023-04-15T12:44:18.585Z,9.9353